createdAt,value
2022-08-28T00:02:28.457Z,13.25
2022-08-28T00:06:14.445Z,12.30
2022-08-28T00:10:06.442Z,14.27
2022-08-28T00:13:44.536Z,12.65
2022-08-28T00:17:36.440Z,12.15
2022-08-28T00:21:29.453Z,11.20
2022-08-28T00:25:11.356Z,11.27
2022-08-28T00:29:03.466Z,10.93
2022-08-28T00:32:48.498Z,11.85
2022-08-28T00:36:34.516Z,11.75
2022-08-28T00:40:30.448Z,11.82
2022-08-28T00:44:26.439Z,12.03
2022-08-28T00:48:25.447Z,11.47
2022-08-28T00:52:19.446Z,11.95
2022-08-28T00:56:06.973Z,10.85
2022-08-28T01:00:11.486Z,10.85
2022-08-28T01:04:03.452Z,10.80
2022-08-28T01:07:50.485Z,10.47
2022-08-28T01:11:42.511Z,10.82
2022-08-28T01:15:24.240Z,11.80
2022-08-28T01:19:23.501Z,11.02
2022-08-28T01:23:34.468Z,11.63
2022-08-28T01:27:12.879Z,12.47
2022-08-28T01:31:04.518Z,13.07
2022-08-28T01:34:49.515Z,12.55
2022-08-28T01:38:41.529Z,12.77
2022-08-28T01:42:20.408Z,13.90
2022-08-28T01:46:17.581Z,14.07
2022-08-28T01:50:02.514Z,13.25
2022-08-28T01:53:48.624Z,14.23
2022-08-28T01:57:33.505Z,13.98
2022-08-28T02:01:27.594Z,14.47
2022-08-28T02:05:06.662Z,13.83
2022-08-28T02:09:01.494Z,14.27
2022-08-28T02:12:48.482Z,15.15
2022-08-28T02:16:43.577Z,15.60
2022-08-28T02:20:29.511Z,16.77
2022-08-28T02:24:21.509Z,16.47
2022-08-28T02:28:06.499Z,16.77
2022-08-28T02:31:51.561Z,17.17
2022-08-28T02:35:37.616Z,17.30
2022-08-28T02:39:30.527Z,17.93
2022-08-28T02:43:18.128Z,17.43
2022-08-28T02:47:02.645Z,17.23
2022-08-28T02:50:47.527Z,17.98
2022-08-28T02:54:32.605Z,18.35
2022-08-28T02:58:17.552Z,17.40
2022-08-28T03:02:10.579Z,19.17
2022-08-28T03:05:56.519Z,18.83
2022-08-28T03:09:43.620Z,18.90
2022-08-28T03:13:28.514Z,19.90
2022-08-28T03:17:21.533Z,18.67
2022-08-28T03:21:07.566Z,20.15
2022-08-28T03:24:52.633Z,18.80
2022-08-28T03:28:41.533Z,18.17
2022-08-28T03:32:33.527Z,18.33
2022-08-28T03:36:29.569Z,17.33
2022-08-28T03:40:15.646Z,17.45
2022-08-28T03:44:08.556Z,17.38
2022-08-28T03:47:48.640Z,17.55
2022-08-28T03:51:42.537Z,18.17
2022-08-28T03:55:29.560Z,18.33
2022-08-28T03:59:31.641Z,18.05
2022-08-28T04:03:25.619Z,16.92
2022-08-28T04:07:10.569Z,16.77
2022-08-28T04:11:06.593Z,16.27
2022-08-28T04:14:44.646Z,18.30
2022-08-28T04:18:37.560Z,18.50
2022-08-28T04:22:22.581Z,17.35
2022-08-28T04:26:23.588Z,15.98
2022-08-28T04:30:16.581Z,18.30
2022-08-28T04:34:08.629Z,16.63
2022-08-28T04:37:55.577Z,17.45
2022-08-28T04:41:44.715Z,17.27
2022-08-28T04:45:29.625Z,17.05
2022-08-28T04:49:15.557Z,15.83
2022-08-28T04:53:07.697Z,17.33
2022-08-28T04:56:53.631Z,16.92
2022-08-28T05:00:54.662Z,17.30
2022-08-28T05:04:46.573Z,16.40
2022-08-28T05:08:34.605Z,15.70
2022-08-28T05:12:28.613Z,17.07
2022-08-28T05:16:17.653Z,14.82
2022-08-28T05:20:11.595Z,15.85
2022-08-28T05:23:56.593Z,16.45
2022-08-28T05:27:48.612Z,13.83
2022-08-28T05:31:41.697Z,15.07
2022-08-28T05:35:26.632Z,15.27
2022-08-28T05:39:21.621Z,16.20
2022-08-28T05:43:13.606Z,15.57
2022-08-28T05:47:00.611Z,14.47
2022-08-28T05:50:59.625Z,14.87
2022-08-28T05:54:47.608Z,14.13
2022-08-28T05:58:38.652Z,14.10
2022-08-28T06:02:23.635Z,14.35
2022-08-28T06:06:23.632Z,12.80
2022-08-28T06:10:15.631Z,14.00
2022-08-28T06:14:01.730Z,13.55
2022-08-28T06:18:01.638Z,13.50
2022-08-28T06:21:54.626Z,14.00
2022-08-28T06:25:39.635Z,12.87
2022-08-28T06:29:32.607Z,14.30
2022-08-28T06:33:12.767Z,13.38
2022-08-28T06:37:04.664Z,13.05
2022-08-28T06:40:57.752Z,13.40
2022-08-28T06:44:43.025Z,12.57
2022-08-28T06:48:38.636Z,12.60
2022-08-28T06:52:23.630Z,12.60
2022-08-28T06:56:26.307Z,12.05
2022-08-28T07:00:12.636Z,13.00
2022-08-28T07:04:07.671Z,12.63
2022-08-28T07:07:52.642Z,12.47
2022-08-28T07:11:39.718Z,11.48
2022-08-28T07:15:24.667Z,12.45
2022-08-28T07:19:17.649Z,12.45
2022-08-28T07:23:02.664Z,11.30
2022-08-28T07:26:54.664Z,10.73
2022-08-28T07:30:32.943Z,11.13
2022-08-28T07:34:26.907Z,10.93
2022-08-28T07:38:12.804Z,11.38
2022-08-28T07:42:06.641Z,12.23
2022-08-28T07:45:45.007Z,10.70
2022-08-28T07:49:37.681Z,9.85
2022-08-28T07:53:22.683Z,10.20
2022-08-28T07:57:14.659Z,9.93
2022-08-28T08:00:53.992Z,9.53
2022-08-28T08:04:46.669Z,9.30
2022-08-28T08:08:32.716Z,9.52
2022-08-28T08:12:29.328Z,9.93
2022-08-28T08:16:20.261Z,9.55
2022-08-28T08:20:11.681Z,8.70
2022-08-28T08:23:56.695Z,8.73
2022-08-28T08:27:48.727Z,8.73
2022-08-28T08:31:29.870Z,9.48
2022-08-28T08:35:21.748Z,8.27
2022-08-28T08:39:01.008Z,8.00
2022-08-28T08:42:52.703Z,9.40
2022-08-28T08:46:43.792Z,8.23
2022-08-28T08:50:41.722Z,8.63
2022-08-28T08:54:21.170Z,8.55
2022-08-28T08:58:24.708Z,8.40
2022-08-28T09:02:18.714Z,9.20
2022-08-28T09:06:16.722Z,8.98
2022-08-28T09:09:57.110Z,8.95
2022-08-28T09:14:07.735Z,8.70
2022-08-28T09:18:14.989Z,8.83
2022-08-28T09:21:59.831Z,8.60
2022-08-28T09:26:02.751Z,9.38
2022-08-28T09:29:55.743Z,8.55
2022-08-28T09:33:58.785Z,8.70
2022-08-28T09:37:50.754Z,7.97
2022-08-28T09:41:50.541Z,9.10
2022-08-28T09:45:43.759Z,8.65
2022-08-28T09:49:37.735Z,7.75
2022-08-28T09:53:29.150Z,8.40
2022-08-28T09:57:14.757Z,8.10
2022-08-28T10:01:12.822Z,7.90
2022-08-28T10:05:00.867Z,8.27
2022-08-28T10:09:00.871Z,8.02
2022-08-28T10:13:27.875Z,8.15
2022-08-28T10:17:57.776Z,7.37
2022-08-28T10:21:42.756Z,7.30
2022-08-28T10:26:03.823Z,8.20
2022-08-28T10:29:59.435Z,8.25
2022-08-28T10:34:13.835Z,8.25
2022-08-28T10:38:16.799Z,8.77
2022-08-28T10:42:06.974Z,7.80
2022-08-28T10:45:52.803Z,7.70
2022-08-28T10:49:54.822Z,8.30
2022-08-28T10:53:41.712Z,7.75
2022-08-28T10:57:48.819Z,6.80
2022-08-28T11:01:44.869Z,8.20
2022-08-28T11:05:40.795Z,7.07
2022-08-28T11:09:35.801Z,6.57
2022-08-28T11:13:56.848Z,6.50
2022-08-28T11:17:47.818Z,6.77
2022-08-28T11:21:45.826Z,6.05
2022-08-28T11:25:42.345Z,6.32
2022-08-28T11:30:10.785Z,6.35
2022-08-28T11:34:00.529Z,6.20
2022-08-28T11:37:57.929Z,7.07
2022-08-28T11:42:19.287Z,5.72
2022-08-28T11:46:13.898Z,6.65
2022-08-28T11:49:58.822Z,5.60
2022-08-28T11:54:07.853Z,6.07
2022-08-28T11:57:55.522Z,5.47
2022-08-28T12:01:48.842Z,5.13
2022-08-28T12:05:39.851Z,4.93
2022-08-28T12:09:56.364Z,4.50
2022-08-28T12:13:59.836Z,4.80
2022-08-28T12:18:00.831Z,5.50
2022-08-28T12:21:39.262Z,5.18
2022-08-28T12:25:52.893Z,5.55
2022-08-28T12:29:55.846Z,5.47
2022-08-28T12:34:06.898Z,5.50
2022-08-28T12:37:59.846Z,5.80
2022-08-28T12:41:45.853Z,5.00
2022-08-28T12:45:59.924Z,5.40
2022-08-28T12:50:06.839Z,4.30
2022-08-28T12:54:09.886Z,4.30
2022-08-28T12:58:01.858Z,4.67
2022-08-28T13:01:48.143Z,4.45
2022-08-28T13:05:39.572Z,4.75
2022-08-28T13:09:27.856Z,5.28
2022-08-28T13:13:22.872Z,5.17
2022-08-28T13:17:07.902Z,4.90
2022-08-28T13:20:53.367Z,5.05
2022-08-28T13:24:41.863Z,4.15
2022-08-28T13:28:33.884Z,4.53
2022-08-28T13:32:23.893Z,3.43
2022-08-28T13:36:33.873Z,3.90
2022-08-28T13:40:38.067Z,3.35
2022-08-28T13:45:18.864Z,4.15
2022-08-28T13:49:03.878Z,4.10
2022-08-28T13:52:49.020Z,3.10
2022-08-28T13:56:33.880Z,3.50
2022-08-28T14:00:26.897Z,3.97
2022-08-28T14:04:11.885Z,3.22
2022-08-28T14:08:03.875Z,3.08
2022-08-28T14:11:43.004Z,3.40
2022-08-28T14:15:34.906Z,3.35
2022-08-28T14:19:19.911Z,3.25
2022-08-28T14:23:12.325Z,2.50
2022-08-28T14:26:51.492Z,2.88
2022-08-28T14:30:42.900Z,2.80
2022-08-28T14:34:30.922Z,2.47
2022-08-28T14:38:17.017Z,2.50
2022-08-28T14:42:01.890Z,2.92
2022-08-28T14:46:01.994Z,2.03
2022-08-28T14:50:00.981Z,2.20
2022-08-28T14:53:53.913Z,2.25
2022-08-28T14:57:38.953Z,2.50
2022-08-28T15:01:40.358Z,2.05
2022-08-28T15:05:21.584Z,2.08
2022-08-28T15:09:21.657Z,1.87
2022-08-28T15:13:13.178Z,1.90
2022-08-28T15:17:05.479Z,1.90
2022-08-28T15:21:07.965Z,1.98
2022-08-28T15:24:46.443Z,1.90
2022-08-28T15:28:37.920Z,2.53
2022-08-28T15:32:22.955Z,1.90
2022-08-28T15:36:07.992Z,1.80
2022-08-28T15:40:10.986Z,1.65
2022-08-28T15:44:15.029Z,1.67
2022-08-28T15:47:59.951Z,1.60
2022-08-28T15:51:45.062Z,1.73
2022-08-28T15:55:29.960Z,1.48
2022-08-28T15:59:25.949Z,1.52
2022-08-28T16:03:31.981Z,1.80
2022-08-28T16:07:19.045Z,1.50
2022-08-28T16:11:05.985Z,1.40
2022-08-28T16:14:57.972Z,1.20
2022-08-28T16:18:36.331Z,1.20
2022-08-28T16:22:29.013Z,1.40
2022-08-28T16:26:16.954Z,1.83
2022-08-28T16:30:15.553Z,2.10
2022-08-28T16:33:54.613Z,1.50
2022-08-28T16:37:45.991Z,1.60
2022-08-28T16:41:32.966Z,1.70
2022-08-28T16:45:18.083Z,1.90
2022-08-28T16:49:02.971Z,1.67
2022-08-28T16:52:55.980Z,1.60
2022-08-28T16:56:35.600Z,1.65
2022-08-28T17:00:27.007Z,1.80
2022-08-28T17:04:11.992Z,1.60
2022-08-28T17:07:58.908Z,1.65
2022-08-28T17:11:43.986Z,2.78
2022-08-28T17:15:29.094Z,2.38
2022-08-28T17:19:13.989Z,1.60
2022-08-28T17:23:06.004Z,1.87
2022-08-28T17:26:44.581Z,1.80
2022-08-28T17:30:37.035Z,2.10
2022-08-28T17:34:30.437Z,1.75
2022-08-28T17:38:09.071Z,1.80
2022-08-28T17:42:01.045Z,2.07
2022-08-28T17:45:49.006Z,2.20
2022-08-28T17:49:41.002Z,2.00
2022-08-28T17:53:19.085Z,2.42
2022-08-28T17:57:11.018Z,2.50
2022-08-28T18:00:50.428Z,2.33
2022-08-28T18:04:43.037Z,2.60
2022-08-28T18:08:28.004Z,2.53
2022-08-28T18:12:20.000Z,3.45
2022-08-28T18:15:58.111Z,2.37
2022-08-28T18:19:50.053Z,2.77
2022-08-28T18:23:36.020Z,3.38
2022-08-28T18:27:29.026Z,3.13
2022-08-28T18:31:07.133Z,3.25
2022-08-28T18:35:08.031Z,3.23
2022-08-28T18:38:53.797Z,3.38
2022-08-28T18:42:39.052Z,3.70
2022-08-28T18:46:33.076Z,3.67
2022-08-28T18:50:18.033Z,3.80
2022-08-28T18:54:03.366Z,4.10
2022-08-28T18:57:49.031Z,3.42
2022-08-28T19:01:41.419Z,4.03
2022-08-28T19:05:27.037Z,4.25
2022-08-28T19:09:20.293Z,3.50
2022-08-28T19:13:07.067Z,4.17
2022-08-28T19:16:59.046Z,4.45
2022-08-28T19:20:44.050Z,3.97
2022-08-28T19:24:29.158Z,4.28
2022-08-28T19:28:14.305Z,4.63
2022-08-28T19:32:06.068Z,4.37
2022-08-28T19:35:58.067Z,4.47
2022-08-28T19:39:37.135Z,4.18
2022-08-28T19:43:42.769Z,4.47
2022-08-28T19:47:29.074Z,4.50
2022-08-28T19:51:23.722Z,5.05
2022-08-28T19:55:18.072Z,4.30
2022-08-28T19:59:05.077Z,3.70
2022-08-28T20:02:51.570Z,4.35
2022-08-28T20:06:38.076Z,4.00
2022-08-28T20:10:31.096Z,4.63
2022-08-28T20:14:16.093Z,4.30
2022-08-28T20:18:08.091Z,4.32
2022-08-28T20:21:51.952Z,3.92
2022-08-28T20:25:44.088Z,4.43
2022-08-28T20:29:24.074Z,4.03
2022-08-28T20:33:16.100Z,4.20
2022-08-28T20:37:01.116Z,3.97
2022-08-28T20:40:53.079Z,4.30
2022-08-28T20:44:31.475Z,4.23
2022-08-28T20:48:23.085Z,4.85
2022-08-28T20:52:10.074Z,4.55
2022-08-28T20:55:55.203Z,3.90
2022-08-28T20:59:41.108Z,3.80
2022-08-28T21:03:35.100Z,3.70
2022-08-28T21:07:15.713Z,4.15
2022-08-28T21:11:07.115Z,3.58
2022-08-28T21:14:52.101Z,3.90
2022-08-28T21:18:42.528Z,3.77
2022-08-28T21:22:39.196Z,4.25
2022-08-28T21:26:31.096Z,4.57
2022-08-28T21:30:19.119Z,4.30
2022-08-28T21:34:11.135Z,4.80
2022-08-28T21:37:56.114Z,4.60
2022-08-28T21:41:48.124Z,4.88
2022-08-28T21:45:33.123Z,5.07
2022-08-28T21:49:25.132Z,5.82
2022-08-28T21:53:10.120Z,5.40
2022-08-28T21:56:58.606Z,4.73
2022-08-28T22:00:44.144Z,5.15
2022-08-28T22:04:36.114Z,5.22
2022-08-28T22:08:15.972Z,5.50
2022-08-28T22:12:08.145Z,5.47
2022-08-28T22:15:55.142Z,5.35
2022-08-28T22:19:40.290Z,5.80
2022-08-28T22:23:25.139Z,5.63
2022-08-28T22:27:20.262Z,5.63
2022-08-28T22:30:58.745Z,5.43
2022-08-28T22:34:56.166Z,4.97
2022-08-28T22:38:41.136Z,5.03
2022-08-28T22:42:45.180Z,4.68
2022-08-28T22:46:44.155Z,4.40
2022-08-28T22:50:36.143Z,3.95
2022-08-28T22:54:21.149Z,4.57
2022-08-28T22:58:20.146Z,3.95
2022-08-28T23:02:12.190Z,4.07
2022-08-28T23:05:57.175Z,5.00
2022-08-28T23:09:56.172Z,3.65
2022-08-28T23:13:48.180Z,3.22
2022-08-28T23:17:33.168Z,3.30
2022-08-28T23:21:35.173Z,3.28
2022-08-28T23:25:40.194Z,3.33
2022-08-28T23:29:32.188Z,3.63
2022-08-28T23:33:23.672Z,4.15
2022-08-28T23:37:23.200Z,4.63
2022-08-28T23:41:15.339Z,4.63
2022-08-28T23:45:01.177Z,4.47
2022-08-28T23:48:53.193Z,4.95
2022-08-28T23:52:31.266Z,5.82
2022-08-28T23:56:23.179Z,6.18
